Skip Navigation Links Skip Navigation LinksHome page > Weather > Archival weather report

Archival weather report

Los Angeles Intl, Los Angeles

For information only: do not use for flight planning or navigation.
Latest weather
Observation time Friday, November 13, 2015 4:53 PM PST
Local time Sunday, May 31, 2020 6:28 AM PDT
Flight conditions Visual Meteorological Conditions
Winds
Wind direction West-Southwest (240°)
Wind speed 9 mph
Visibility 10 mi.
Sky condition
Ceiling unlimited
Sky clear
Temperature 67°F
Dewpoint 46°F
Altimeter 29.93 in.Hg
Derived measurements
Relative humidity 47%
Density altitude 659 ft.
Sea-level pressure 29.93 in.Hg
Remarks
Automated weather observing station with precipitation discriminator.
METAR KLAX 140053Z 24008KT 10SM CLR 19/08 A2993 RMK AO2 SLP136 T01940078

Find weather

Site navigation


Skip Navigation Links

Place info

Page info

PayPal - The safer, easier way to pay online!

Return home.

Copyright ©2020 Inner Drive Technology. Purveyors of fine, hand-crafted computer software. Page printed 2020-05-31T13:28:33 UTC.